createdAt,value
2019-03-17T08:08:46.840Z,16.60
2019-03-17T08:11:14.508Z,15.43
2019-03-17T08:13:42.022Z,16.23
2019-03-17T08:16:09.562Z,14.10
2019-03-17T08:18:37.195Z,14.53
2019-03-17T08:21:04.729Z,13.63
2019-03-17T08:23:32.263Z,14.87
2019-03-17T08:25:59.866Z,13.67
2019-03-17T08:28:27.421Z,12.87
2019-03-17T08:30:54.981Z,13.00
2019-03-17T08:33:22.562Z,16.27
2019-03-17T08:35:50.131Z,12.03
2019-03-17T08:38:22.269Z,10.03
2019-03-17T08:40:47.083Z,9.50
2019-03-17T08:43:14.708Z,10.93
2019-03-17T08:45:42.219Z,10.17
2019-03-17T08:48:09.793Z,10.00
2019-03-17T08:50:37.441Z,9.37
2019-03-17T08:53:05.191Z,9.00
2019-03-17T08:55:32.821Z,9.57
2019-03-17T08:58:00.407Z,9.03
2019-03-17T09:00:27.935Z,8.50
2019-03-17T09:02:55.524Z,7.57
2019-03-17T09:05:23.187Z,8.40
2019-03-17T09:07:50.796Z,7.70
2019-03-17T09:10:19.571Z,9.03
2019-03-17T09:12:47.181Z,7.57
2019-03-17T09:15:14.688Z,7.60
2019-03-17T09:17:42.245Z,7.87
2019-03-17T09:20:10.031Z,8.00
2019-03-17T09:22:37.547Z,7.00
2019-03-17T09:25:05.471Z,7.20
2019-03-17T09:27:32.998Z,7.40
2019-03-17T09:30:00.513Z,6.23
2019-03-17T09:32:28.083Z,7.03
2019-03-17T09:34:55.639Z,7.03
2019-03-17T09:37:23.158Z,7.03
2019-03-17T09:39:50.700Z,7.23
2019-03-17T09:42:18.233Z,6.07
2019-03-17T09:44:45.791Z,6.20
2019-03-17T09:47:13.359Z,6.47
2019-03-17T09:49:40.877Z,7.03
2019-03-17T09:52:08.435Z,6.67
2019-03-17T09:54:35.971Z,6.27
2019-03-17T09:57:03.490Z,6.30
2019-03-17T09:59:31.039Z,5.47
2019-03-17T10:01:58.583Z,5.10
2019-03-17T10:04:26.127Z,5.67
2019-03-17T10:06:53.695Z,5.57
2019-03-17T10:09:21.210Z,5.67
2019-03-17T10:11:48.861Z,5.33
2019-03-17T10:14:16.541Z,5.93
2019-03-17T10:16:44.067Z,6.97
2019-03-17T10:19:11.662Z,5.70
2019-03-17T10:21:39.247Z,6.90
2019-03-17T10:24:06.767Z,6.83
2019-03-17T10:26:34.333Z,5.37
2019-03-17T10:29:01.873Z,6.07
2019-03-17T10:31:29.417Z,5.83
2019-03-17T10:33:57.035Z,4.70
2019-03-17T10:36:24.555Z,5.47
2019-03-17T10:38:52.094Z,4.90
2019-03-17T10:41:19.651Z,4.90
2019-03-17T10:43:47.215Z,4.63
2019-03-17T10:46:14.728Z,4.70
2019-03-17T10:48:42.280Z,4.53
2019-03-17T10:51:09.845Z,5.47
2019-03-17T10:53:37.389Z,4.90
2019-03-17T10:56:04.910Z,5.90
2019-03-17T10:58:32.427Z,5.10
2019-03-17T11:01:00.020Z,5.37
2019-03-17T11:03:27.662Z,4.70
2019-03-17T11:05:55.357Z,5.13
2019-03-17T11:08:23.480Z,5.77
2019-03-17T11:10:51.041Z,5.50
2019-03-17T11:13:18.583Z,5.63
2019-03-17T11:15:46.119Z,5.60
2019-03-17T11:18:13.694Z,4.87
2019-03-17T11:20:46.710Z,4.70
2019-03-17T11:23:14.248Z,4.83
2019-03-17T11:25:41.799Z,4.83
2019-03-17T11:28:09.339Z,4.40
2019-03-17T11:30:36.943Z,4.60
2019-03-17T11:33:04.488Z,4.73
2019-03-17T11:35:32.031Z,4.90
2019-03-17T11:37:59.655Z,4.27
2019-03-17T11:40:27.188Z,4.57
2019-03-17T11:42:54.726Z,4.27
2019-03-17T11:45:22.359Z,4.57
2019-03-17T11:47:50.706Z,3.77
2019-03-17T11:50:18.317Z,4.40
2019-03-17T11:52:45.892Z,4.20
2019-03-17T11:55:13.764Z,4.00
2019-03-17T11:57:41.405Z,5.47
2019-03-17T12:00:10.975Z,6.67
2019-03-17T12:02:38.481Z,3.47
2019-03-17T12:05:06.709Z,3.57
2019-03-17T12:07:34.279Z,3.33
2019-03-17T12:10:01.963Z,3.27
2019-03-17T12:12:29.585Z,3.20
2019-03-17T12:14:57.084Z,3.57
2019-03-17T12:17:24.633Z,3.93
2019-03-17T12:19:52.172Z,3.07
2019-03-17T12:22:19.725Z,3.37
2019-03-17T12:24:47.253Z,3.20
2019-03-17T12:27:14.860Z,3.53
2019-03-17T12:29:42.430Z,2.80
2019-03-17T12:32:09.971Z,3.63
2019-03-17T12:34:37.577Z,3.57
2019-03-17T12:37:05.149Z,3.23
2019-03-17T12:39:32.678Z,3.23
2019-03-17T12:42:00.225Z,4.37
2019-03-17T12:44:27.781Z,5.23
2019-03-17T12:46:55.397Z,4.20
2019-03-17T12:49:22.991Z,4.20
2019-03-17T12:51:50.555Z,2.80
2019-03-17T12:54:18.174Z,3.23
2019-03-17T12:56:45.795Z,2.50
2019-03-17T12:59:13.398Z,2.67
2019-03-17T13:01:41.016Z,2.73
2019-03-17T13:04:08.589Z,2.57
2019-03-17T13:06:36.153Z,2.70
2019-03-17T13:09:06.105Z,2.70
2019-03-17T13:11:33.656Z,2.67
2019-03-17T13:14:01.199Z,3.13
2019-03-17T13:16:28.765Z,2.63
2019-03-17T13:18:56.316Z,3.57
2019-03-17T13:21:23.887Z,2.73
2019-03-17T13:23:51.479Z,3.23
2019-03-17T13:26:19.021Z,2.67
2019-03-17T13:28:46.572Z,2.30
2019-03-17T13:31:14.207Z,2.43
2019-03-17T13:33:41.752Z,2.37
2019-03-17T13:36:09.344Z,2.37
2019-03-17T13:38:36.943Z,2.10
2019-03-17T13:41:04.530Z,2.70
2019-03-17T13:43:32.058Z,2.83
2019-03-17T13:45:59.635Z,5.30
2019-03-17T13:48:27.181Z,2.40
2019-03-17T13:50:54.737Z,2.53
2019-03-17T13:53:23.019Z,3.27
2019-03-17T13:55:51.541Z,2.67
2019-03-17T13:58:19.101Z,3.90
2019-03-17T14:00:46.701Z,2.80
2019-03-17T14:03:14.279Z,2.23
2019-03-17T14:05:41.842Z,3.10
2019-03-17T14:08:09.383Z,2.83
2019-03-17T14:10:41.240Z,2.33
2019-03-17T14:13:06.488Z,2.80
2019-03-17T14:15:34.016Z,2.43
2019-03-17T14:18:01.603Z,2.00
2019-03-17T14:20:29.148Z,2.37
2019-03-17T14:22:56.702Z,2.20
2019-03-17T14:25:24.978Z,1.80
2019-03-17T14:27:52.606Z,2.43
2019-03-17T14:30:20.186Z,2.40
2019-03-17T14:32:47.714Z,2.47
2019-03-17T14:35:15.307Z,2.60
2019-03-17T14:37:42.825Z,2.60
2019-03-17T14:40:12.051Z,2.37
2019-03-17T14:42:39.634Z,2.67
2019-03-17T14:45:08.112Z,2.50
2019-03-17T14:47:35.707Z,2.10
2019-03-17T14:50:03.775Z,2.73
2019-03-17T14:52:31.294Z,2.37
2019-03-17T14:54:58.884Z,2.67
2019-03-17T14:57:26.435Z,5.03
2019-03-17T14:59:54.125Z,2.40
2019-03-17T15:02:21.807Z,2.47
2019-03-17T15:04:49.465Z,2.43
2019-03-17T15:07:16.985Z,3.07
2019-03-17T15:09:44.551Z,2.53
2019-03-17T15:12:12.166Z,2.97
2019-03-17T15:14:39.726Z,2.80
2019-03-17T15:17:07.334Z,2.87
2019-03-17T15:19:34.871Z,2.80
2019-03-17T15:22:02.411Z,2.40
2019-03-17T15:24:29.961Z,2.13
2019-03-17T15:26:57.531Z,3.13
2019-03-17T15:29:25.127Z,3.00
2019-03-17T15:31:52.640Z,2.40
2019-03-17T15:34:20.220Z,2.40
2019-03-17T15:36:48.082Z,2.80
2019-03-17T15:39:15.790Z,2.60
2019-03-17T15:41:43.376Z,2.67
2019-03-17T15:44:10.968Z,2.77
2019-03-17T15:46:38.531Z,2.47
2019-03-17T15:49:06.147Z,2.77
2019-03-17T15:51:33.681Z,4.43
2019-03-17T15:54:01.234Z,7.37
2019-03-17T15:56:28.790Z,10.80
2019-03-17T15:58:56.396Z,6.93
2019-03-17T16:01:24.039Z,3.63
2019-03-17T16:03:51.629Z,3.23
2019-03-17T16:06:19.261Z,3.30
2019-03-17T16:08:47.101Z,4.23
2019-03-17T16:11:14.793Z,2.83
2019-03-17T16:13:42.696Z,2.80
2019-03-17T16:16:10.306Z,3.47
2019-03-17T16:18:37.962Z,3.20
2019-03-17T16:21:05.550Z,3.77
2019-03-17T16:23:33.161Z,4.23
2019-03-17T16:26:00.769Z,5.33
2019-03-17T16:28:28.448Z,6.13
2019-03-17T16:30:56.094Z,5.00
2019-03-17T16:33:23.680Z,4.23
2019-03-17T16:35:51.283Z,6.43
2019-03-17T16:38:18.920Z,8.17
2019-03-17T16:40:46.515Z,5.60
2019-03-17T16:43:15.767Z,4.13
2019-03-17T16:45:43.704Z,11.40
2019-03-17T16:48:11.253Z,8.83
2019-03-17T16:50:38.832Z,7.90
2019-03-17T16:53:06.487Z,9.83
2019-03-17T16:55:34.088Z,9.93
2019-03-17T16:58:01.699Z,11.10
2019-03-17T17:00:29.295Z,16.37
2019-03-17T17:02:56.892Z,20.77
2019-03-17T17:05:24.537Z,19.63
2019-03-17T17:07:52.120Z,20.13
2019-03-17T17:10:19.841Z,18.93
2019-03-17T17:12:47.645Z,23.77
2019-03-17T17:15:19.716Z,22.60
2019-03-17T17:17:47.272Z,28.83
2019-03-17T17:20:16.966Z,26.17
2019-03-17T17:22:44.523Z,27.23
2019-03-17T17:25:12.109Z,28.60
2019-03-17T17:27:39.741Z,37.53
2019-03-17T17:30:09.241Z,34.77
2019-03-17T17:32:36.944Z,39.07
2019-03-17T17:35:04.988Z,26.73
2019-03-17T17:37:32.586Z,28.20
2019-03-17T17:40:00.288Z,29.47
2019-03-17T17:42:27.984Z,37.60
2019-03-17T17:44:55.926Z,46.37
2019-03-17T17:47:23.514Z,58.73
2019-03-17T17:49:51.098Z,53.67
2019-03-17T17:52:18.731Z,63.83
2019-03-17T17:54:46.516Z,65.57
2019-03-17T17:57:14.033Z,71.20
2019-03-17T17:59:41.666Z,69.47
2019-03-17T18:02:09.326Z,70.73
2019-03-17T18:04:37.355Z,66.80
2019-03-17T18:07:04.924Z,70.87
2019-03-17T18:09:32.564Z,69.13
2019-03-17T18:12:00.222Z,69.93
2019-03-17T18:14:27.877Z,65.93
2019-03-17T18:16:55.467Z,67.87
2019-03-17T18:19:23.070Z,67.07
2019-03-17T18:21:50.671Z,61.70
2019-03-17T18:24:18.354Z,59.47
2019-03-17T18:26:45.918Z,59.20
2019-03-17T18:29:13.481Z,60.40
2019-03-17T18:31:41.164Z,57.53
2019-03-17T18:34:09.055Z,57.00
2019-03-17T18:36:38.643Z,52.37
2019-03-17T18:39:06.555Z,58.97
2019-03-17T18:41:34.134Z,60.83
2019-03-17T18:44:01.747Z,64.73
2019-03-17T18:46:29.333Z,60.43
2019-03-17T18:48:56.894Z,60.27
2019-03-17T18:51:25.194Z,59.70
2019-03-17T18:53:54.126Z,55.43
2019-03-17T18:56:21.676Z,53.53
2019-03-17T18:58:49.206Z,51.67
2019-03-17T19:01:16.812Z,52.93
2019-03-17T19:03:44.327Z,55.07
2019-03-17T19:06:11.852Z,52.00
2019-03-17T19:08:39.797Z,51.40
2019-03-17T19:11:07.637Z,47.93
2019-03-17T19:13:35.170Z,49.13
2019-03-17T19:16:02.709Z,50.63
2019-03-17T19:18:30.299Z,46.53
2019-03-17T19:20:57.868Z,46.93
2019-03-17T19:23:25.445Z,45.50
2019-03-17T19:25:52.950Z,45.90
2019-03-17T19:28:20.594Z,51.03
2019-03-17T19:30:48.174Z,57.43
2019-03-17T19:33:15.682Z,54.57
2019-03-17T19:35:43.298Z,52.37
2019-03-17T19:38:10.908Z,52.37
2019-03-17T19:40:38.574Z,54.77
2019-03-17T19:43:06.082Z,53.80
2019-03-17T19:45:33.711Z,58.80
2019-03-17T19:48:01.274Z,56.87
2019-03-17T19:50:28.829Z,55.63
2019-03-17T19:52:56.471Z,44.87
2019-03-17T19:55:24.066Z,43.20
2019-03-17T19:57:51.633Z,45.37
2019-03-17T20:00:19.211Z,47.03
2019-03-17T20:02:47.690Z,45.47
2019-03-17T20:05:15.588Z,46.63
2019-03-17T20:07:43.179Z,131.13
2019-03-17T20:10:12.694Z,115.73
2019-03-17T20:12:40.411Z,85.00
2019-03-17T20:15:08.103Z,105.23
2019-03-17T20:17:35.715Z,95.13
2019-03-17T20:20:04.408Z,86.97
2019-03-17T20:22:31.963Z,91.10
2019-03-17T20:24:59.504Z,98.57
2019-03-17T20:27:27.048Z,94.03
2019-03-17T20:29:54.599Z,93.30
2019-03-17T20:32:22.154Z,86.73
2019-03-17T20:34:49.680Z,75.63
2019-03-17T20:37:17.235Z,70.43
2019-03-17T20:39:44.813Z,78.20
2019-03-17T20:42:12.319Z,77.57
2019-03-17T20:44:39.952Z,71.67
2019-03-17T20:47:07.541Z,70.17
2019-03-17T20:49:35.099Z,72.60
2019-03-17T20:52:02.578Z,78.33
2019-03-17T20:54:30.206Z,84.23
2019-03-17T20:57:00.507Z,80.03
2019-03-17T20:59:27.094Z,82.63
2019-03-17T21:01:54.693Z,87.40
2019-03-17T21:04:22.230Z,85.10
2019-03-17T21:06:49.823Z,81.03
2019-03-17T21:09:17.404Z,76.53
2019-03-17T21:11:45.031Z,63.47
2019-03-17T21:14:13.218Z,56.23
2019-03-17T21:16:40.920Z,47.77
2019-03-17T21:19:08.453Z,40.00
2019-03-17T21:21:36.013Z,49.23
2019-03-17T21:24:03.601Z,46.23
2019-03-17T21:26:31.138Z,54.43
2019-03-17T21:28:58.682Z,57.17
2019-03-17T21:31:26.273Z,62.70
2019-03-17T21:33:53.840Z,52.30
2019-03-17T21:36:21.378Z,50.17
2019-03-17T21:38:48.919Z,47.93
2019-03-17T21:41:16.457Z,43.47
2019-03-17T21:43:44.035Z,42.87
2019-03-17T21:46:11.562Z,38.67
2019-03-17T21:48:39.134Z,36.93
2019-03-17T21:51:06.731Z,40.67
2019-03-17T21:53:34.284Z,42.03
2019-03-17T21:56:01.813Z,49.50
2019-03-17T21:58:29.359Z,44.33
2019-03-17T22:00:56.981Z,47.20
2019-03-17T22:03:24.525Z,45.40
2019-03-17T22:05:52.039Z,43.87
2019-03-17T22:08:19.641Z,40.30
2019-03-17T22:10:47.199Z,43.97
2019-03-17T22:13:14.987Z,45.67
2019-03-17T22:15:42.653Z,42.63
2019-03-17T22:18:10.197Z,36.77
2019-03-17T22:20:37.724Z,33.00
2019-03-17T22:23:05.307Z,23.43
2019-03-17T22:25:32.925Z,18.30
2019-03-17T22:28:08.432Z,14.17
2019-03-17T22:30:29.808Z,12.90
2019-03-17T22:32:57.377Z,12.03
2019-03-17T22:35:24.941Z,10.97
2019-03-17T22:37:52.495Z,11.73
2019-03-17T22:40:20.052Z,12.97
2019-03-17T22:42:47.659Z,10.20
2019-03-17T22:45:15.286Z,9.33
2019-03-17T22:47:42.923Z,7.23
2019-03-17T22:50:10.721Z,6.93
2019-03-17T22:52:38.254Z,5.10
2019-03-17T22:55:06.061Z,5.00
2019-03-17T22:57:33.597Z,4.00
2019-03-17T23:00:01.167Z,3.77
2019-03-17T23:02:29.830Z,2.90
2019-03-17T23:04:57.551Z,3.13
2019-03-17T23:07:25.308Z,3.20
2019-03-17T23:09:53.021Z,2.67
2019-03-17T23:12:20.750Z,2.63
2019-03-17T23:14:48.575Z,2.10
2019-03-17T23:17:16.357Z,2.63
2019-03-17T23:19:44.074Z,3.20
2019-03-17T23:22:11.811Z,1.70
2019-03-17T23:24:39.617Z,1.80
2019-03-17T23:27:07.340Z,1.77
2019-03-17T23:29:35.039Z,1.80
2019-03-17T23:32:02.780Z,0.97
2019-03-17T23:34:30.486Z,0.90
2019-03-17T23:36:58.238Z,1.10
2019-03-17T23:39:25.973Z,0.90
2019-03-17T23:41:53.687Z,1.30
2019-03-17T23:44:21.388Z,1.07
2019-03-17T23:46:49.109Z,1.40
2019-03-17T23:49:16.817Z,1.47
2019-03-17T23:51:44.550Z,1.50
2019-03-17T23:54:12.314Z,1.50
2019-03-17T23:56:40.010Z,1.30
2019-03-17T23:59:07.750Z,1.40
